METAR Data
IDs: Format: Raw Decoded Include TAF

Data at: 1143 UTC 16 Oct 2018

PASH 161056Z AUTO 04016KT 7SM FEW120 04/02 A2948 RMK AO2 SLP985 T00440022
PASH 160956Z AUTO 04016KT 9SM BKN120 04/02 A2951 RMK AO2 SLP994 T00440017
PASH 160856Z AUTO 04017KT 10SM BKN120 04/02 A2953 RMK AO2 SLP001 T00440017 400610017 58019
PASH 160756Z AUTO 03019KT 10SM CLR 05/02 A2955 RMK AO2 SLP008 T00500017
PASH 160656Z AUTO 03018KT 10SM CLR 05/01 A2957 RMK AO2 SLP013 T00500011
PASH 160556Z AUTO 03018KT 10SM CLR 05/02 A2958 RMK AO2 SLP019 T00500017 10056 20044 58014
PASH 160456Z AUTO 04018KT 10SM CLR 05/02 A2960 RMK AO2 SLP025 T00500017
PASH 160356Z AUTO 05018G22KT 10SM CLR 05/M01 A2961 RMK AO2 SLP028 T00501006
PASH 160256Z AUTO 05016KT 10SM CLR 05/00 A2962 RMK AO2 SLP033 T00500000 58030
PASH 160156Z AUTO 06013KT 10SM CLR 05/M01 A2966 RMK AO2 SLP044 T00501006
PASH 160056Z AUTO 06013KT 10SM CLR 05/00 A2968 RMK AO2 SLP052 T00500000
PASH 152356Z AUTO 06013KT 10SM CLR 06/01 A2971 RMK AO2 SLP063 T00560011 10061 20022 56021
PASH 152256Z AUTO 06011KT 10SM CLR 05/01 A2973 RMK AO2 SLP069 T00500011
PASH 152156Z AUTO 06011KT 10SM CLR 04/01 A2975 RMK AO2 SLP077 T00440011
PASH 151956Z AUTO 06011KT 10SM CLR 04/02 A2978 RMK AO2 SLP085 T00390017
PASH 151856Z AUTO 06012KT 10SM CLR 02/01 A2979 RMK AO2 SLP088 T00220011 FZRANO
PASH 151756Z AUTO 06012KT 10SM CLR 02/01 A2979 RMK AO2 SLP089 T00220011 10022 20017 58004 FZRANO
PASH 151656Z AUTO 07013KT 10SM CLR 02/01 A2980 RMK AO2 SLP091 T00170011 FZRANO
PASH 151556Z AUTO 07012KT 10SM CLR 02/02 A2980 RMK AO2 SLP093 T00220017 FZRANO
PASH 151456Z AUTO 06012KT 10SM CLR 02/02 A2980 RMK AO2 SLP093 T00220022 56007 FZRANO
PASH 151403Z AUTO 06012KT 10SM SCT011 02/02 A2980 RMK AO2 FZRANO
PASH 151356Z AUTO 06011KT 10SM BKN011 02/02 A2980 RMK AO2 SLP093 T00220017 FZRANO
PASH 151336Z AUTO 06011KT 10SM SCT011 02/02 A2981 RMK AO2 FZRANO
PASH 151320Z AUTO 06010KT 10SM BKN011 02/02 A2981 RMK AO2 FZRANO
PASH 151256Z AUTO 06012KT 10SM SCT011 02/02 A2982 RMK AO2 SLP098 T00220017 FZRANO
PASH 151156Z AUTO 06011KT 10SM SCT006 02/01 A2982 RMK AO2 SLPNO 60000 7//// T00170011 10022 20000 58002 FZRANO
PASH 151111Z AUTO 06011KT 10SM BKN006 02/02 A2983 RMK AO2 FZRANO
PASH 151056Z AUTO 07009KT 10SM SCT008 02/02 A2983 RMK AO2 SLPNO T00220017 FZRANO
PASH 151052Z AUTO 07009KT 10SM SCT010 02/02 A2983 RMK AO2 FZRANO
PASH 151019Z AUTO 07009KT 10SM BKN010 BKN025 02/02 A2983 RMK AO2 FZRANO
PASH 150956Z AUTO 07009KT 10SM BKN019 BKN025 02/02 A2983 RMK AO2 SLPNO T00220022 FZRANO
PASH 150920Z AUTO 07007KT 10SM SCT002 BKN007 BKN012 02/02 A2983 RMK AO2 FZRANO
PASH 150830Z AUTO 06004KT 3SM BR OVC002 02/02 A2983 RMK AO2 FZRANO
PASH 150809Z AUTO 07007KT 1 1/2SM BR OVC002 02/02 A2983 RMK AO2 FZRANO
PASH 150756Z AUTO 08006KT 1SM BR OVC002 02/01 A2983 RMK AO2 UPB34E45RAB45E46 CIG 002V006 SLPNO P0000 T00170011 FZRANO
PASH 150743Z AUTO 07007KT 3/4SM UP BR OVC002 01/01 A2983 RMK AO2 UPB34 CIG 001V006 P0000 FZRANO
PASH 150721Z AUTO 08012KT 1 1/2SM BR OVC002 01/01 A2983 RMK AO2 FZRANO
PASH 150705Z AUTO 08006KT 1SM BR OVC002 01/00 A2983 RMK AO2 FZRANO
PASH 150656Z AUTO 07006KT 1 1/4SM BR OVC002 01/00 A2983 RMK AO2 SLPNO T00060000 FZRANO
PASH 150636Z AUTO 07006KT 1 1/4SM BR OVC002 00/00 A2983 RMK AO2 FZRANO
PASH 150622Z AUTO 07007KT 2SM BR OVC002 00/00 A2983 RMK AO2 FZRANO
PASH 150615Z AUTO 07007KT 1 3/4SM BR OVC002 00/00 A2983 RMK AO2 FZRANO
PASH 150556Z AUTO 07008KT 2SM BR BKN002 01/01 A2982 RMK AO2 SLPNO 6//// T00060006 10061 20006 53007 FZRANO
PASH 150544Z AUTO 07010KT 3SM BR BKN002 01/01 A2982 RMK AO2 FZRANO
PASH 150535Z AUTO 06009KT 2SM BR FEW002 01/01 A2982 RMK AO2 FZRANO
PASH 150508Z AUTO 07009KT 1 3/4SM BR CLR 02/01 A2981 RMK AO2 FZRANO
PASH 150456Z AUTO 06008KT 10SM CLR 03/02 A2981 RMK AO2 SLPNO T00280022
PASH 150356Z AUTO 07009KT 10SM CLR 04/03 A2981 RMK AO2 SLPNO T00390028
PASH 150256Z AUTO 07006KT 10SM CLR 04/03 A2980 RMK AO2 SLPNO 6//// T00440033
PASH 150156Z AUTO 08005KT 10SM CLR 06/04 A2980 RMK AO2 SLPNO T00610039
PASH 150056Z AUTO 09006KT 10SM 05/03 A2980 RMK AO2 SLPNO T00500028